Time;durP1;ratioP1;P1;durP2;ratioP2;P2;SDS_P1;SDS_P2;PMS_P1;PMS_P2;Temp;Humidity;BMP_temperature;BMP_pressure;BME280_temperature;BME280_humidity;BME280_pressure;Samples;Min_cycle;Max_cycle;Signal;HPM_P1;HPM_P2
2022/11/18 00:01:05;;;;;;;23.13;8.65;;;;;;;3.94;100.00;99429.31;5998712;28;20089;-68
2022/11/18 00:04:01;;;;;;;28.02;11.05;;;;;;;3.95;100.00;99430.97;5999910;28;20031;-69
2022/11/18 00:06:56;;;;;;;26.77;10.25;;;;;;;3.92;100.00;99426.00;6000005;28;20093;-69
2022/11/18 00:09:52;;;;;;;28.43;11.30;;;;;;;3.85;100.00;99422.25;5998929;28;20054;-70
2022/11/18 00:16:06;;;;;;;24.98;9.52;;;;;;;3.83;100.00;99425.00;5999191;28;20035;-70
2022/11/18 00:19:02;;;;;;;;;;;;;;;3.88;100.00;99437.72;6000053;28;20035;-70
2022/11/18 00:21:57;;;;;;;24.80;9.37;;;;;;;3.90;100.00;99448.91;5998234;28;19914;-70
2022/11/18 00:24:53;;;;;;;27.25;10.05;;;;;;;3.80;100.00;99427.09;5999114;28;20061;-69
2022/11/18 00:27:48;;;;;;;23.40;7.95;;;;;;;3.78;100.00;99427.22;5999123;28;20100;-69
2022/11/18 00:30:43;;;;;;;27.30;10.20;;;;;;;3.88;100.00;99441.19;5998657;28;20186;-70
2022/11/18 00:33:39;;;;;;;22.57;9.77;;;;;;;3.89;100.00;99452.47;5999645;28;20070;-66
2022/11/18 00:36:34;;;;;;;22.93;9.73;;;;;;;3.82;100.00;99446.13;5998631;28;20486;-68
2022/11/18 00:39:31;;;;;;;30.70;9.63;;;;;;;3.88;100.00;99453.47;5998804;28;20288;-69
2022/11/18 00:45:41;;;;;;;29.70;10.57;;;;;;;3.88;100.00;99461.31;5998732;28;20039;-69
2022/11/18 00:48:37;;;;;;;33.05;10.55;;;;;;;3.75;100.00;99442.41;5998723;28;20452;-70
2022/11/18 00:51:33;;;;;;;22.80;8.82;;;;;;;3.77;100.00;99448.31;5998387;28;20053;-69
2022/11/18 00:54:28;;;;;;;22.53;9.03;;;;;;;3.83;100.00;99460.91;5999150;28;20027;-70
2022/11/18 00:57:23;;;;;;;25.37;9.07;;;;;;;3.80;100.00;99455.94;5998578;28;20278;-69
2022/11/18 01:00:19;;;;;;;25.07;9.83;;;;;;;3.79;100.00;99454.25;5997100;28;20278;-69
2022/11/18 01:03:14;;;;;;;23.85;8.93;;;;;;;3.79;100.00;99459.50;5998698;28;20114;-69
2022/11/18 01:06:09;;;;;;;27.70;9.07;;;;;;;3.70;100.00;99442.78;5998295;28;20105;-69
2022/11/18 01:09:05;;;;;;;33.90;11.17;;;;;;;3.82;100.00;99462.69;5998393;28;20278;-69
2022/11/18 01:15:14;;;;;;;27.70;10.65;;;;;;;3.72;100.00;99458.38;5998526;28;20050;-69
2022/11/18 01:18:09;;;;;;;30.10;8.97;;;;;;;3.75;100.00;99471.22;5997851;28;20042;-69
2022/11/18 01:21:05;;;;;;;31.73;13.43;;;;;;;3.71;100.00;99469.81;5985183;28;20093;-70
2022/11/18 01:24:00;;;;;;;31.75;11.35;;;;;;;3.66;100.00;99472.03;5997903;28;20038;-70
2022/11/18 01:26:56;;;;;;;24.77;9.83;;;;;;;3.72;100.00;99481.97;5997943;28;20046;-70
2022/11/18 01:29:51;;;;;;;22.25;9.15;;;;;;;3.70;100.00;99484.72;5997966;28;20070;-69
2022/11/18 01:32:46;;;;;;;28.10;11.20;;;;;;;3.63;100.00;99470.50;5999759;28;20121;-69
2022/11/18 01:35:43;;;;;;;24.53;9.90;;;;;;;3.68;100.00;99477.94;6003000;28;20356;-69
2022/11/18 01:38:38;;;;;;;24.83;10.15;;;;;;;3.58;100.00;99478.75;6002367;28;20043;-70
2022/11/18 01:41:33;;;;;;;25.47;9.00;;;;;;;3.57;100.00;99471.84;6001087;28;20034;-69
2022/11/18 01:45:03;;;;;;;26.73;9.57;;;;;;;3.66;100.00;99482.50;6003033;28;20077;-70
2022/11/18 01:48:14;;;;;;;27.67;9.35;;;;;;;3.64;100.00;99479.19;6001132;28;20101;-68
2022/11/18 01:51:15;;;;;;;24.77;9.32;;;;;;;3.61;100.00;99473.22;6001800;28;20046;-69
2022/11/18 01:54:12;;;;;;;;;;;;;;;3.60;100.00;99482.06;6003088;28;20054;-69
2022/11/18 01:57:12;;;;;;;28.00;10.27;;;;;;;3.53;100.00;99477.50;6002572;28;19950;-69
2022/11/18 02:00:08;;;;;;;32.22;10.60;;;;;;;3.55;100.00;99481.66;6001514;28;20031;-68
2022/11/18 02:03:04;;;;;;;27.90;10.57;;;;;;;3.53;100.00;99494.03;6002613;28;20509;-68
2022/11/18 02:06:01;;;;;;;28.55;10.77;;;;;;;3.45;100.00;99470.28;6002032;28;20037;-68
2022/11/18 02:08:56;;;;;;;27.60;9.82;;;;;;;3.43;100.00;99487.94;6001946;28;20686;-68
2022/11/18 02:11:54;;;;;;;27.88;9.43;;;;;;;3.52;100.00;99505.50;6001385;28;20089;-70
2022/11/18 02:14:50;;;;;;;30.08;10.57;;;;;;;3.43;100.00;99498.41;6001910;28;20035;-68
2022/11/18 02:18:37;;;;;;;28.75;11.32;;;;;;;3.49;100.00;99516.22;6000949;28;20042;-68
2022/11/18 02:21:45;;;;;;;;;;;;;;;3.48;100.00;99517.19;5992619;28;20118;-69
2022/11/18 02:24:48;;;;;;;28.45;10.68;;;;;;;3.40;100.00;99522.25;5999744;28;19921;-68
2022/11/18 02:28:12;;;;;;;28.70;12.18;;;;;;;3.35;100.00;99527.03;6002198;28;20037;-68
2022/11/18 02:31:14;;;;;;;32.88;12.15;;;;;;;3.24;100.00;99506.16;5996409;28;20041;-68
2022/11/18 02:34:24;;;;;;;35.67;12.38;;;;;;;3.23;100.00;99507.16;6002153;28;20482;-68
2022/11/18 02:37:34;;;;;;;33.38;11.57;;;;;;;3.33;100.00;99518.50;5999735;28;20077;-68
2022/11/18 02:40:32;;;;;;;29.55;10.77;;;;;;;3.26;100.00;99512.09;6000567;28;20291;-67
2022/11/18 02:43:30;;;;;;;30.08;10.32;;;;;;;3.26;100.00;99521.78;6000128;28;20483;-68
2022/11/18 02:46:32;;;;;;;29.85;9.20;;;;;;;3.26;100.00;99537.50;6001965;28;20034;-68
2022/11/18 02:49:40;;;;;;;28.25;9.77;;;;;;;3.23;100.00;99522.84;6001611;28;20513;-68
2022/11/18 02:52:37;;;;;;;36.50;10.88;;;;;;;3.12;100.00;99511.63;5999953;28;20031;-68
2022/11/18 02:55:34;;;;;;;26.83;10.32;;;;;;;3.15;100.00;99533.16;6000310;28;20045;-68
2022/11/18 02:58:29;;;;;;;30.52;10.30;;;;;;;3.16;100.00;99541.81;5998840;28;20035;-68
2022/11/18 03:01:28;;;;;;;33.03;11.68;;;;;;;3.07;100.00;99527.72;6000591;28;20022;-68
2022/11/18 03:04:28;;;;;;;31.98;11.25;;;;;;;3.08;100.00;99524.13;5999606;28;20043;-68
2022/11/18 03:07:28;;;;;;;26.02;10.57;;;;;;;3.13;100.00;99548.13;5999711;28;20375;-68
2022/11/18 03:10:28;;;;;;;33.95;11.70;;;;;;;3.09;100.00;99541.50;5999007;28;20209;-68
2022/11/18 03:13:27;;;;;;;36.78;10.38;;;;;;;3.00;100.00;99537.88;5999151;28;20368;-68
2022/11/18 03:16:26;;;;;;;31.58;10.80;;;;;;;2.96;100.00;99544.28;6011034;28;20374;-68
2022/11/18 03:19:39;;;;;;;34.97;14.43;;;;;;;2.93;100.00;99547.19;5999103;28;20415;-68
2022/11/18 03:22:48;;;;;;;39.03;12.73;;;;;;;3.03;100.00;99562.97;6000370;28;20042;-68
2022/11/18 03:26:06;;;;;;;43.35;14.38;;;;;;;2.89;100.00;99548.38;6000125;28;20038;-68
2022/11/18 03:29:15;;;;;;;28.50;10.68;;;;;;;2.93;100.00;99548.97;5999618;28;20037;-68
2022/11/18 03:32:22;;;;;;;29.80;11.70;;;;;;;2.94;100.00;99566.31;5999721;28;20038;-69
2022/11/18 03:35:22;;;;;;;41.50;12.90;;;;;;;2.90;100.00;99557.06;5999191;28;20042;-68
2022/11/18 03:38:23;;;;;;;34.67;12.20;;;;;;;3.00;100.00;99578.91;5998565;28;20035;-68
2022/11/18 03:41:20;;;;;;;27.55;11.90;;;;;;;2.91;100.00;99579.66;5998693;28;20482;-68
2022/11/18 03:44:20;;;;;;;37.92;12.48;;;;;;;2.79;100.00;99575.44;5998795;28;20033;-67
2022/11/18 03:47:21;;;;;;;45.40;14.35;;;;;;;2.76;100.00;99580.94;5998702;28;20533;-69
2022/11/18 03:50:20;;;;;;;34.83;13.15;;;;;;;2.77;100.00;99579.97;5999344;28;20039;-68
2022/11/18 03:53:17;;;;;;;32.47;11.27;;;;;;;2.69;100.00;99569.31;5998751;28;20039;-68
2022/11/18 03:56:14;;;;;;;43.10;11.98;;;;;;;2.76;100.00;99586.16;5998552;28;20097;-69
2022/11/18 03:59:27;;;;;;;36.15;12.63;;;;;;;2.74;100.00;99567.16;5999429;28;20043;-68
2022/11/18 04:02:25;;;;;;;42.45;14.68;;;;;;;2.81;100.00;99594.47;5998763;28;20026;-69
2022/11/18 04:05:20;;;;;;;29.45;11.60;;;;;;;2.74;100.00;99602.00;5997187;28;20084;-69
2022/11/18 04:08:20;;;;;;;35.43;12.37;;;;;;;2.65;100.00;99599.28;5999923;28;20684;-68
2022/11/18 04:14:35;;;;;;;33.08;9.63;;;;;;;2.58;100.00;99598.13;5999383;28;20043;-68
2022/11/18 04:17:31;;;;;;;41.13;13.43;;;;;;;2.64;100.00;99614.16;5998997;28;20030;-68
2022/11/18 04:20:27;;;;;;;38.67;11.90;;;;;;;2.58;100.00;99600.75;5998403;28;20038;-68
2022/11/18 04:23:22;;;;;;;43.33;11.50;;;;;;;2.61;100.00;99603.91;5999242;28;20382;-69
2022/11/18 04:26:18;;;;;;;33.50;11.57;;;;;;;2.68;100.00;99609.50;5999146;28;20048;-69
2022/11/18 04:29:13;;;;;;;36.00;12.02;;;;;;;2.60;100.00;99609.28;5998492;28;20057;-69
2022/11/18 04:32:08;;;;;;;41.37;14.97;;;;;;;2.57;100.00;99623.44;5998659;28;20047;-69
2022/11/18 04:35:04;;;;;;;39.55;12.82;;;;;;;2.54;100.00;99630.69;5999213;28;20273;-69
2022/11/18 04:37:59;;;;;;;44.85;15.05;;;;;;;2.52;100.00;99619.53;5998603;28;20043;-68
2022/11/18 04:40:55;;;;;;;44.77;14.43;;;;;;;2.50;100.00;99627.50;5998463;28;20041;-69
2022/11/18 04:43:50;;;;;;;42.83;13.00;;;;;;;2.58;100.00;99637.38;5998742;28;20081;-68
2022/11/18 04:46:45;;;;;;;36.73;13.30;;;;;;;2.57;100.00;99639.16;5998501;28;20070;-69
2022/11/18 04:49:40;;;;;;;44.33;12.20;;;;;;;2.54;100.00;99639.38;5999438;28;20769;-69
2022/11/18 04:52:36;;;;;;;39.17;11.33;;;;;;;2.54;100.00;99644.63;5997831;28;20031;-69
2022/11/18 04:55:34;;;;;;;32.97;9.77;;;;;;;2.51;100.00;99641.41;5998846;28;20475;-69
2022/11/18 04:58:30;;;;;;;40.47;12.98;;;;;;;2.44;100.00;99640.25;5997223;28;20038;-69
2022/11/18 05:01:26;;;;;;;34.73;11.37;;;;;;;2.42;100.00;99639.53;5997656;28;20049;-69
2022/11/18 05:04:25;;;;;;;35.88;11.82;;;;;;;2.46;100.00;99640.94;5998642;28;20038;-69
2022/11/18 05:07:20;;;;;;;42.35;14.15;;;;;;;2.56;100.00;99655.78;5999608;28;20034;-69
2022/11/18 05:10:16;;;;;;;24.10;8.65;;;;;;;2.42;100.00;99655.22;5997784;28;20596;-69
2022/11/18 05:13:12;;;;;;;42.17;12.93;;;;;;;2.52;100.00;99674.47;5998432;28;20038;-69
2022/11/18 05:16:07;;;;;;;44.13;13.00;;;;;;;2.45;100.00;99675.91;5998276;28;20038;-68
2022/11/18 05:19:03;;;;;;;37.60;11.80;;;;;;;2.44;100.00;99675.09;5997443;28;20041;-69
2022/11/18 05:21:59;;;;;;;41.53;16.65;;;;;;;2.23;100.00;99651.41;5997542;28;20030;-69
2022/11/18 05:24:54;;;;;;;38.08;11.45;;;;;;;2.45;100.00;99676.72;5998373;28;20118;-68
2022/11/18 05:27:49;;;;;;;30.77;10.70;;;;;;;2.40;100.00;99679.72;5997664;28;20047;-69
2022/11/18 05:30:45;;;;;;;44.40;12.80;;;;;;;2.39;100.00;99683.28;5996973;28;20102;-69
2022/11/18 05:33:41;;;;;;;39.07;13.90;;;;;;;2.20;100.00;99677.00;5998207;28;20038;-69
2022/11/18 05:36:36;;;;;;;33.88;12.73;;;;;;;2.28;100.00;99695.53;5997935;28;20089;-69
2022/11/18 05:39:32;;;;;;;37.57;12.80;;;;;;;2.18;100.00;99684.94;5998075;28;20027;-69
2022/11/18 05:45:42;;;;;;;43.05;11.13;;;;;;;2.31;100.00;99701.34;5997964;28;20386;-69
2022/11/18 05:48:38;;;;;;;31.95;11.90;;;;;;;2.31;100.00;99700.53;5998150;28;20513;-69
2022/11/18 05:51:33;;;;;;;46.53;15.17;;;;;;;2.15;100.00;99695.63;5997262;28;20058;-69
2022/11/18 05:54:29;;;;;;;38.10;12.27;;;;;;;2.19;100.00;99701.47;5998180;28;20030;-69
2022/11/18 05:57:24;;;;;;;42.53;13.13;;;;;;;2.24;100.00;99710.63;5995816;28;20035;-69
2022/11/18 06:00:20;;;;;;;43.07;13.80;;;;;;;2.27;100.00;99715.63;5997079;28;20031;-69
2022/11/18 06:03:19;;;;;;;39.42;12.80;;;;;;;2.27;100.00;99720.84;5997500;28;20371;-69
2022/11/18 06:06:16;;;;;;;40.03;12.38;;;;;;;2.20;100.00;99722.25;5998084;28;20422;-70
2022/11/18 06:09:12;;;;;;;33.13;11.85;;;;;;;2.08;100.00;99727.59;5996933;28;20082;-69
2022/11/18 06:12:08;;;;;;;42.50;11.68;;;;;;;2.05;100.00;99731.28;5997040;28;20026;-70
2022/11/18 06:15:30;;;;;;;41.63;12.23;;;;;;;2.01;100.00;99721.19;5997855;28;20031;-69
2022/11/18 06:18:28;;;;;;;35.88;11.88;;;;;;;2.08;100.00;99746.75;5998374;28;20053;-69
2022/11/18 06:21:25;;;;;;;40.22;12.43;;;;;;;2.02;100.00;99730.69;6000670;28;20038;-68
2022/11/18 06:24:20;;;;;;;34.92;13.10;;;;;;;2.13;100.00;99749.84;6001766;28;20062;-68
2022/11/18 06:27:15;;;;;;;39.97;13.40;;;;;;;2.04;100.00;99734.84;6000955;28;20520;-69
2022/11/18 06:30:12;;;;;;;40.10;12.15;;;;;;;2.17;100.00;99751.28;6001243;28;20435;-68
2022/11/18 06:33:07;;;;;;;38.22;13.15;;;;;;;2.07;100.00;99745.06;6001685;28;20026;-69
2022/11/18 06:36:02;;;;;;;41.92;13.05;;;;;;;2.00;100.00;99751.72;6001560;28;20027;-69
2022/11/18 06:39:05;;;;;;;50.85;18.05;;;;;;;2.04;100.00;99766.22;5997906;28;20065;-68
2022/11/18 06:42:00;;;;;;;38.35;12.55;;;;;;;2.09;100.00;99758.84;6001310;28;20038;-69
2022/11/18 06:44:55;;;;;;;46.30;14.17;;;;;;;2.03;100.00;99764.56;6001508;28;20081;-68
2022/11/18 06:47:50;;;;;;;40.63;13.83;;;;;;;2.02;100.00;99773.34;6001335;28;20071;-68
2022/11/18 06:50:46;;;;;;;44.43;13.77;;;;;;;2.02;100.00;99762.88;6000752;28;20031;-69
2022/11/18 06:53:42;;;;;;;44.05;13.50;;;;;;;1.91;100.00;99770.69;6001619;28;20320;-69
2022/11/18 06:56:37;;;;;;;44.20;14.93;;;;;;;1.98;100.00;99786.78;6001358;28;20109;-68
2022/11/18 06:59:33;;;;;;;40.10;13.02;;;;;;;1.92;100.00;99780.22;6000069;28;20128;-68
2022/11/18 07:02:28;;;;;;;38.30;11.83;;;;;;;1.88;100.00;99784.00;6000158;28;20150;-68
2022/11/18 07:05:23;;;;;;;44.13;14.97;;;;;;;1.90;100.00;99778.66;5998460;28;20057;-68
2022/11/18 07:08:19;;;;;;;36.92;12.40;;;;;;;2.02;100.00;99798.66;6000616;28;20282;-68
2022/11/18 07:11:16;;;;;;;39.63;11.60;;;;;;;1.88;100.00;99799.69;6000573;28;20110;-68
2022/11/18 07:14:12;;;;;;;37.63;12.52;;;;;;;1.85;100.00;99807.75;6001006;28;20701;-70
2022/11/18 07:17:07;;;;;;;45.60;13.43;;;;;;;1.84;100.00;99794.78;6000976;28;20034;-68
2022/11/18 07:20:03;;;;;;;38.70;11.73;;;;;;;1.97;100.00;99817.31;6000676;28;20026;-69
2022/11/18 07:22:58;;;;;;;44.78;11.98;;;;;;;2.01;100.00;99812.69;6000454;28;20262;-69
2022/11/18 07:25:54;;;;;;;42.50;12.50;;;;;;;1.95;100.00;99821.81;6000226;28;20062;-68
2022/11/18 07:28:50;;;;;;;36.38;11.63;;;;;;;1.86;100.00;99822.47;6000428;28;20031;-69
2022/11/18 07:31:45;;;;;;;31.77;10.60;;;;;;;1.76;100.00;99813.66;5999295;28;20037;-68
2022/11/18 07:34:41;;;;;;;32.67;10.90;;;;;;;1.92;100.00;99839.50;6000436;28;20019;-68
2022/11/18 07:37:36;;;;;;;36.40;12.45;;;;;;;1.74;100.00;99826.81;6001158;28;20035;-68
2022/11/18 07:40:31;;;;;;;40.20;12.60;;;;;;;1.69;100.00;99825.50;6001974;28;20035;-68
2022/11/18 07:43:27;;;;;;;38.30;13.43;;;;;;;1.74;100.00;99849.50;6000175;28;20110;-68
2022/11/18 07:46:27;;;;;;;26.77;9.57;;;;;;;1.62;100.00;99832.13;6000097;28;20034;-69
2022/11/18 07:49:23;;;;;;;36.75;13.80;;;;;;;1.70;100.00;99851.53;6000182;28;20023;-68
2022/11/18 07:52:18;;;;;;;29.53;12.60;;;;;;;1.61;100.00;99851.34;5999193;28;20057;-69
2022/11/18 07:55:13;;;;;;;32.93;12.20;;;;;;;1.54;100.00;99850.13;6000075;28;20513;-69
2022/11/18 07:58:08;;;;;;;30.20;10.57;;;;;;;1.46;100.00;99850.69;5999337;28;20041;-69
2022/11/18 08:01:08;;;;;;;32.03;10.83;;;;;;;1.60;100.00;99881.84;5999881;28;20082;-71
2022/11/18 08:04:05;;;;;;;30.05;8.88;;;;;;;1.64;100.00;99877.25;5999734;28;20117;-68
2022/11/18 08:07:01;;;;;;;36.72;10.63;;;;;;;1.71;100.00;99884.53;5999720;28;20183;-69
2022/11/18 08:09:56;;;;;;;30.30;10.03;;;;;;;1.65;100.00;99873.69;5999741;28;20018;-70
2022/11/18 08:12:51;;;;;;;37.03;11.60;;;;;;;1.67;100.00;99884.88;5998403;28;20023;-67
2022/11/18 08:15:47;;;;;;;31.00;9.93;;;;;;;1.61;100.00;99877.47;5999686;28;20038;-69
2022/11/18 08:18:43;;;;;;;30.17;10.67;;;;;;;1.53;100.00;99864.97;5999427;28;20092;-68
2022/11/18 08:21:38;;;;;;;30.17;10.63;;;;;;;1.50;100.00;99885.22;5997280;28;20097;-69
2022/11/18 08:24:33;;;;;;;25.97;8.33;;;;;;;1.45;100.00;99879.50;5999310;28;20035;-69
2022/11/18 08:27:30;;;;;;;28.87;10.90;;;;;;;1.63;100.00;99912.19;5999526;28;20105;-68
2022/11/18 08:30:26;;;;;;;25.17;9.10;;;;;;;1.47;100.00;99896.72;5998921;28;20582;-69
2022/11/18 08:33:21;;;;;;;28.53;10.47;;;;;;;1.51;100.00;99920.88;5999569;28;20034;-69
2022/11/18 08:36:18;;;;;;;29.77;11.20;;;;;;;1.57;100.00;99923.06;5999116;28;20614;-69
2022/11/18 08:39:14;;;;;;;40.00;13.68;;;;;;;1.50;100.00;99925.25;5997435;28;20683;-68
2022/11/18 08:42:09;;;;;;;42.33;13.00;;;;;;;1.42;100.00;99922.34;5996712;28;20039;-69
2022/11/18 08:45:07;;;;;;;33.47;13.77;;;;;;;1.35;100.00;99934.19;5999078;28;20269;-69
2022/11/18 08:48:02;;;;;;;48.00;16.42;;;;;;;1.32;100.00;99936.16;5998510;28;20038;-68
2022/11/18 08:50:58;;;;;;;40.67;13.60;;;;;;;1.29;100.00;99923.31;5998463;28;20026;-68
2022/11/18 08:53:53;;;;;;;37.80;13.93;;;;;;;1.31;100.00;99935.31;5999037;28;20026;-69
2022/11/18 08:56:49;;;;;;;28.45;11.40;;;;;;;1.35;100.00;99949.00;5998516;28;20041;-69
2022/11/18 08:59:44;;;;;;;39.03;13.23;;;;;;;1.16;100.00;99928.56;5998818;28;20110;-69
2022/11/18 09:02:40;;;;;;;37.47;14.30;;;;;;;1.28;100.00;99953.81;5996717;28;20033;-68
2022/11/18 09:05:35;;;;;;;44.33;14.93;;;;;;;1.20;100.00;99945.66;5998246;28;20041;-69
2022/11/18 09:08:30;;;;;;;32.93;13.13;;;;;;;1.23;100.00;99950.69;5998497;28;20176;-69
2022/11/18 09:11:27;;;;;;;33.70;11.67;;;;;;;1.06;100.00;99956.25;5997861;28;20023;-69
2022/11/18 09:14:22;;;;;;;39.00;13.60;;;;;;;1.13;100.00;99971.38;5998654;28;20038;-69
2022/11/18 09:17:17;;;;;;;35.37;13.40;;;;;;;1.18;100.00;99958.84;5998419;28;20038;-68
2022/11/18 09:20:13;;;;;;;38.20;12.73;;;;;;;1.00;100.00;99954.06;5998131;28;20113;-69
2022/11/18 09:23:08;;;;;;;33.85;13.45;;;;;;;0.91;100.00;99971.16;5998452;28;20027;-69
2022/11/18 09:26:09;;;;;;;33.10;13.70;;;;;;;0.98;100.00;99979.44;5998085;28;20031;-69
2022/11/18 09:29:05;;;;;;;32.65;10.95;;;;;;;0.96;100.00;99969.06;5998543;28;20065;-69
2022/11/18 09:32:00;;;;;;;27.23;8.87;;;;;;;0.89;100.00;99973.03;5997506;28;20030;-70
2022/11/18 09:34:56;;;;;;;37.65;14.32;;;;;;;0.90;100.00;99974.69;5998304;28;20023;-69
2022/11/18 09:37:51;;;;;;;31.90;13.20;;;;;;;0.85;100.00;99965.50;5998045;28;20061;-68
2022/11/18 09:41:08;;;;;;;33.47;11.50;;;;;;;0.97;100.00;99990.78;5997114;28;20451;-69
2022/11/18 09:44:19;;;;;;;36.90;12.32;;;;;;;1.05;100.00;99997.16;5998340;28;20035;-69
2022/11/18 09:47:27;;;;;;;27.95;10.25;;;;;;;0.90;100.00;100000.78;5998019;28;20038;-69
2022/11/18 09:50:22;;;;;;;34.38;11.50;;;;;;;0.83;100.00;100009.97;5995346;28;20455;-69
2022/11/18 09:53:24;;;;;;;32.10;13.15;;;;;;;0.83;100.00;100009.97;5998034;28;20089;-69
2022/11/18 09:56:20;;;;;;;31.40;11.25;;;;;;;0.81;100.00;100011.03;6001325;28;20031;-69
2022/11/18 09:59:18;;;;;;;32.60;9.30;;;;;;;0.75;100.00;100004.44;6001306;28;20498;-69
2022/11/18 10:02:32;;;;;;;37.83;14.95;;;;;;;0.72;100.00;100001.19;6000326;28;20356;-68
2022/11/18 10:05:34;;;;;;;32.22;12.88;;;;;;;0.72;100.00;100020.28;5999721;28;20027;-69
2022/11/18 10:08:39;;;;;;;30.95;10.88;;;;;;;0.73;100.00;100021.97;6002634;28;20034;-69
2022/11/18 10:11:40;;;;;;;33.70;11.15;;;;;;;0.74;100.00;100023.63;6003814;28;20657;-70
2022/11/18 10:14:45;;;;;;;27.85;9.85;;;;;;;0.74;100.00;100014.97;6001492;28;20054;-69
2022/11/18 10:17:53;;;;;;;26.35;10.50;;;;;;;0.71;100.00;100016.00;6000928;28;20030;-69
2022/11/18 10:20:56;;;;;;;24.60;9.20;;;;;;;0.72;100.00;100033.34;6000255;28;20063;-70
2022/11/18 10:23:58;;;;;;;22.35;9.27;;;;;;;0.68;100.00;100034.47;6000846;28;20117;-68
2022/11/18 10:26:56;;;;;;;32.55;11.45;;;;;;;0.63;100.00;100023.50;6002251;28;20038;-68
2022/11/18 10:29:53;;;;;;;27.83;9.48;;;;;;;0.54;100.00;100035.34;6001013;28;20130;-68
2022/11/18 10:32:58;;;;;;;32.50;12.90;;;;;;;0.66;100.00;100054.59;5999933;28;20553;-69
2022/11/18 10:36:15;;;;;;;28.25;9.95;;;;;;;0.64;100.00;100055.63;6002045;28;20035;-69
2022/11/18 10:39:12;;;;;;;31.88;10.93;;;;;;;0.72;100.00;100063.81;6001704;28;20521;-69
2022/11/18 10:42:19;;;;;;;30.50;10.38;;;;;;;0.57;100.00;100050.00;6001319;28;20026;-69
2022/11/18 10:45:16;;;;;;;29.30;11.77;;;;;;;0.62;100.00;100071.41;6000302;28;20072;-69
2022/11/18 10:48:14;;;;;;;30.20;10.45;;;;;;;0.66;100.00;100072.00;6001584;28;20466;-70
2022/11/18 10:51:23;;;;;;;37.72;13.05;;;;;;;0.57;100.00;100070.88;6000692;28;20109;-69
2022/11/18 10:54:21;;;;;;;26.85;9.20;;;;;;;0.42;100.00;100061.41;6000405;28;20039;-70
2022/11/18 10:57:22;;;;;;;32.80;11.32;;;;;;;0.46;100.00;100073.31;6001384;28;20114;-70
2022/11/18 11:00:41;;;;;;;28.55;9.40;;;;;;;0.62;100.00;100089.66;5999703;28;20449;-69
2022/11/18 11:03:41;;;;;;;24.58;9.70;;;;;;;0.60;100.00;100078.47;6000728;28;20561;-69
2022/11/18 11:06:37;;;;;;;30.27;10.85;;;;;;;0.54;100.00;100081.50;6000322;28;20077;-70
2022/11/18 11:09:34;;;;;;;23.42;8.48;;;;;;;0.52;100.00;100078.13;5998954;28;20046;-70
2022/11/18 11:12:31;;;;;;;26.20;9.13;;;;;;;0.57;100.00;100084.72;6000355;28;20042;-70
2022/11/18 11:15:36;;;;;;;24.83;9.20;;;;;;;0.58;100.00;100068.16;6001690;28;20236;-70
2022/11/18 11:18:41;;;;;;;37.03;12.65;;;;;;;0.63;100.00;100087.88;5999744;28;20046;-71
2022/11/18 11:21:36;;;;;;;33.15;11.55;;;;;;;0.71;100.00;100098.66;5999424;28;20485;-70
2022/11/18 11:24:32;;;;;;;28.03;9.53;;;;;;;0.52;100.00;100083.34;6000827;28;20027;-71
2022/11/18 11:27:47;;;;;;;27.07;10.27;;;;;;;0.50;100.00;100095.66;6000455;28;20054;-71
2022/11/18 11:31:11;;;;;;;27.45;9.95;;;;;;;0.49;100.00;100109.63;5993078;28;20522;-69
2022/11/18 11:34:27;;;;;;;31.20;11.68;;;;;;;0.57;100.00;100115.22;5994488;28;20066;-70
2022/11/18 11:37:32;;;;;;;31.73;10.13;;;;;;;0.51;100.00;100108.59;5998945;28;20035;-70
2022/11/18 11:40:46;;;;;;;24.30;9.00;;;;;;;0.59;100.00;100122.00;5997924;28;20027;-70
2022/11/18 11:43:47;;;;;;;26.13;9.27;;;;;;;0.54;100.00;100105.78;6000458;28;20096;-71
2022/11/18 11:50:52;;;;;;;26.85;9.90;;;;;;;0.46;100.00;100122.88;5998711;28;20035;-70
2022/11/18 11:54:20;;;;;;;26.33;10.98;;;;;;;0.56;100.00;100142.22;5999933;28;20813;-70
2022/11/18 11:57:27;;;;;;;20.83;8.77;;;;;;;0.55;100.00;100138.75;5999808;28;20758;-69
2022/11/18 12:00:22;;;;;;;27.25;11.95;;;;;;;0.41;100.00;100123.13;5999486;28;20062;-70
2022/11/18 12:03:31;;;;;;;25.83;10.27;;;;;;;0.52;100.00;100130.28;5998502;28;20061;-69
2022/11/18 12:06:26;;;;;;;25.08;10.43;;;;;;;0.54;100.00;100149.31;6000000;28;20034;-70
2022/11/18 12:09:30;;;;;;;22.57;9.57;;;;;;;0.44;100.00;100140.38;6000488;28;20038;-70
2022/11/18 12:12:34;;;;;;;20.98;8.38;;;;;;;0.50;100.00;100163.44;5999859;28;20039;-69
2022/11/18 12:16:00;;;;;;;26.00;8.52;;;;;;;0.57;100.00;100164.75;5999633;28;20355;-70
2022/11/18 12:18:59;;;;;;;19.80;7.90;;;;;;;0.59;100.00;100158.50;5999675;28;20038;-70
2022/11/18 12:22:04;;;;;;;24.30;9.05;;;;;;;0.37;100.00;100145.16;5998164;28;20031;-71
2022/11/18 12:25:37;;;;;;;21.08;7.20;;;;;;;0.55;100.00;100164.00;5999807;28;20031;-70
2022/11/18 12:28:41;;;;;;;25.50;8.68;;;;;;;0.51;100.00;100170.34;6000250;28;20038;-69
2022/11/18 12:31:36;;;;;;;25.20;8.45;;;;;;;0.57;100.00;100154.34;5998886;28;20030;-70
2022/11/18 12:34:38;;;;;;;25.67;9.88;;;;;;;0.57;100.00;100151.72;5999825;28;20031;-69
2022/11/18 12:37:34;;;;;;;29.95;13.60;;;;;;;0.55;100.00;100158.78;5999456;28;20050;-71
2022/11/18 12:40:43;;;;;;;20.73;8.07;;;;;;;0.32;100.00;100139.38;5999582;28;20370;-71
2022/11/18 12:43:47;;;;;;;21.35;7.55;;;;;;;0.31;100.00;100168.97;6002350;28;20033;-70
2022/11/18 12:46:45;;;;;;;18.27;6.35;;;;;;;0.35;100.00;100169.63;5999454;28;20050;-70
2022/11/18 12:49:43;;;;;;;26.55;9.73;;;;;;;0.38;100.00;100177.28;5999159;28;20458;-70
2022/11/18 12:52:38;;;;;;;25.55;8.85;;;;;;;0.33;100.00;100169.72;5998689;28;20061;-69
2022/11/18 12:55:36;;;;;;;30.77;10.33;;;;;;;0.29;100.00;100170.00;5999568;28;20062;-69
2022/11/18 12:58:32;;;;;;;25.98;8.55;;;;;;;0.27;100.00;100177.09;5999146;28;20410;-70
2022/11/18 13:01:29;;;;;;;24.53;10.27;;;;;;;0.31;100.00;100189.84;5998818;28;20030;-69
2022/11/18 13:04:25;;;;;;;22.98;8.65;;;;;;;0.20;100.00;100184.44;5997299;28;20041;-70
2022/11/18 13:10:38;;;;;;;22.92;9.93;;;;;;;0.24;100.00;100178.13;5998516;28;20027;-70
2022/11/18 13:13:33;;;;;;;21.85;8.80;;;;;;;0.35;100.00;100195.72;5997860;28;20096;-69
2022/11/18 13:19:54;;;;;;;28.10;10.95;;;;;;;0.39;100.00;100202.41;5999149;28;20031;-70
2022/11/18 13:26:18;;;;;;;28.13;10.98;;;;;;;0.38;100.00;100205.97;5998973;28;20038;-69
2022/11/18 13:29:45;;;;;;;21.10;9.32;;;;;;;0.18;100.00;100208.94;6002051;28;20041;-69
2022/11/18 13:32:43;;;;;;;37.15;12.77;;;;;;;0.11;100.00;100197.22;6003264;28;20471;-70
2022/11/18 13:35:39;;;;;;;30.77;10.77;;;;;;;0.19;100.00;100219.25;6002315;28;20031;-69
2022/11/18 13:38:34;;;;;;;26.95;10.05;;;;;;;0.13;100.00;100205.78;6003604;28;20049;-71
2022/11/18 13:41:32;;;;;;;26.10;11.07;;;;;;;0.07;100.00;100212.19;5990506;28;20039;-70
2022/11/18 13:44:35;;;;;;;30.15;11.35;;;;;;;0.19;100.00;100231.47;6003466;28;20116;-69
2022/11/18 13:47:43;;;;;;;27.23;10.77;;;;;;;0.08;100.00;100223.47;6003505;28;20629;-69
2022/11/18 13:50:40;;;;;;;;;;;;;;;0.25;100.00;100236.28;6002998;28;20471;-69
2022/11/18 13:53:37;;;;;;;33.45;12.48;;;;;;;0.23;100.00;100238.16;6002003;28;19914;-70
2022/11/18 13:56:32;;;;;;;32.67;10.60;;;;;;;0.23;100.00;100227.72;6001503;28;20074;-70
2022/11/18 13:59:28;;;;;;;26.83;9.07;;;;;;;0.19;100.00;100236.69;6003239;28;20037;-70
2022/11/18 14:02:23;;;;;;;26.05;9.88;;;;;;;0.25;100.00;100251.94;6002738;28;20370;-70
2022/11/18 14:05:19;;;;;;;30.85;11.45;;;;;;;0.29;100.00;100258.66;6001941;28;20429;-69
2022/11/18 14:08:25;;;;;;;36.60;11.88;;;;;;;0.24;100.00;100247.66;6003213;28;20067;-69
2022/11/18 14:11:38;;;;;;;27.45;10.48;;;;;;;0.30;100.00;100266.38;6001831;28;20611;-70
2022/11/18 14:14:38;;;;;;;31.10;11.95;;;;;;;0.26;100.00;100269.25;6002868;28;20429;-70